Humidity-temperature Sensor

Selected Measurement Type: Relative Humidity

 
Relative Humidity [%]     6 entries per hour
Showing data from 3/21/2023 (00:00:00 Z) to 3/20/2023 (00:01:00 Z)
Previous Next [ Day | 3-Days | 7-Days ]
First Last
Prev [ Day | 3-Days | 7-Days ] Next
First Last

Start Time:     :
End Time:     :     
Time (in GMT) :00 :50 :40 :30 :20 :10
Previous Next [ Day | 3-Days | 7-Days ]
First Last
Prev [ Day | 3-Days | 7-Days ] Next
First Last


123 => good data
MM => data is determined as missing
-- => data not received/configured
Back to Top Back to Top
3/21/2023 00:00 to 23:10 76.13 77.36 75.05 77.20 74.71 75.94
3/20/2023 23:00 to 22:10 73.44 75.65 76.92 76.07 77.24 74.52
3/20/2023 22:00 to 21:10 73.48 74.61 75.36 73.42 74.29 75.19
3/20/2023 21:00 to 20:10 74.11 73.98 73.69 76.26 76.84 77.11
3/20/2023 20:00 to 19:10 75.94 76.21 75.55 74.34 74.61 75.63
3/20/2023 19:00 to 18:10 75.57 78.07 76.61 77.78 80.20 78.70
3/20/2023 18:00 to 17:10 80.70 81.41 77.17 78.57 80.14 78.91
3/20/2023 17:00 to 16:10 80.18 77.26 74.63 73.00 78.32 76.01
3/20/2023 16:00 to 15:10 78.53 79.35 78.20 78.87 80.24 78.16
3/20/2023 15:00 to 14:10 81.77 81.93 79.78 79.24 77.30 75.53
3/20/2023 14:00 to 13:10 78.62 79.89 77.63 75.27 78.05 80.83
3/20/2023 13:00 to 12:10 82.44 81.29 81.27 82.77 82.31 81.45
3/20/2023 12:00 to 11:10 82.27 81.93 82.56 81.16 82.94 82.06
3/20/2023 11:00 to 10:10 80.08 82.37 82.02 80.49 87.11 87.05
3/20/2023 10:00 to 9:10 86.17 86.19 84.04 82.81 82.73 84.17
3/20/2023 09:00 to 8:10 83.23 83.25 83.19 82.29 81.16 83.08
3/20/2023 08:00 to 7:10 83.71 82.39 83.83 84.90 84.86 83.00
3/20/2023 07:00 to 6:10 84.11 83.60 85.07 82.66 83.75 83.23
3/20/2023 06:00 to 5:10 84.79 85.52 86.65 86.13 85.73 85.09
3/20/2023 05:00 to 4:10 83.08 83.77 83.02 82.66 82.39 82.14
3/20/2023 04:00 to 3:10 80.95 81.50 80.64 81.87 81.89 82.62
3/20/2023 03:00 to 2:10 80.70 80.81 79.64 81.10 83.12 81.04
3/20/2023 02:00 to 1:10 81.22 82.87 81.37 80.72 79.62 78.39
3/20/2023 01:00 to 0:10 81.12 79.39 81.20 81.83 81.77 80.12